createdAt,value
2022-11-16T00:00:04.320Z,11.68
2022-11-16T00:03:08.818Z,13.23
2022-11-16T00:06:13.558Z,8.05
2022-11-16T00:09:29.322Z,10.13
2022-11-16T00:12:32.433Z,10.88
2022-11-16T00:15:35.434Z,11.80
2022-11-16T00:18:38.611Z,14.98
2022-11-16T00:21:41.685Z,29.05
2022-11-16T00:24:44.732Z,45.42
2022-11-16T00:27:48.207Z,55.53
2022-11-16T00:30:59.813Z,50.72
2022-11-16T00:34:02.880Z,49.50
2022-11-16T00:37:05.942Z,54.67
2022-11-16T00:40:09.573Z,87.45
2022-11-16T00:43:12.652Z,87.70
2022-11-16T00:46:15.829Z,81.60
2022-11-16T00:49:19.128Z,80.53
2022-11-16T00:52:22.581Z,109.72
2022-11-16T00:55:25.555Z,80.30
2022-11-16T00:58:29.028Z,89.05
2022-11-16T01:01:38.358Z,107.75
2022-11-16T01:04:42.812Z,86.82
2022-11-16T01:07:45.972Z,85.45
2022-11-16T01:10:49.006Z,89.32
2022-11-16T01:13:52.630Z,78.07
2022-11-16T01:16:55.967Z,113.82
2022-11-16T01:19:59.027Z,93.82
2022-11-16T01:23:02.206Z,80.93
2022-11-16T01:26:05.390Z,97.47
2022-11-16T01:29:11.178Z,106.93
2022-11-16T01:32:18.573Z,135.57
2022-11-16T01:35:22.321Z,95.27
2022-11-16T01:38:29.513Z,84.95
2022-11-16T01:41:34.246Z,75.50
2022-11-16T01:44:40.707Z,80.35
2022-11-16T01:47:48.170Z,89.68
2022-11-16T01:50:57.630Z,86.20
2022-11-16T01:54:03.404Z,89.47
2022-11-16T01:57:11.130Z,181.00
2022-11-16T02:00:24.003Z,127.78
2022-11-16T02:03:40.236Z,79.95
2022-11-16T02:07:09.638Z,82.80
2022-11-16T02:10:19.712Z,77.85
2022-11-16T02:13:29.118Z,77.95
2022-11-16T02:16:57.496Z,84.93
2022-11-16T02:20:34.590Z,89.55
2022-11-16T02:23:57.218Z,71.82
2022-11-16T02:27:39.578Z,71.35
2022-11-16T02:30:47.734Z,68.50
2022-11-16T02:33:53.737Z,77.93
2022-11-16T02:37:02.457Z,63.35
2022-11-16T02:40:10.033Z,67.50
2022-11-16T02:43:18.804Z,56.53
2022-11-16T02:46:27.902Z,57.40
2022-11-16T02:49:34.340Z,80.75
2022-11-16T02:52:39.380Z,76.10
2022-11-16T02:55:45.351Z,81.47
2022-11-16T02:58:49.035Z,94.68
2022-11-16T03:02:23.670Z,84.85
2022-11-16T03:05:45.066Z,103.85
2022-11-16T03:09:10.717Z,98.63
2022-11-16T03:12:17.463Z,78.65
2022-11-16T03:15:20.828Z,33.05
2022-11-16T03:18:29.650Z,27.45
2022-11-16T03:21:53.420Z,21.52
2022-11-16T03:24:56.910Z,20.55
2022-11-16T03:28:04.512Z,17.57
2022-11-16T03:31:22.371Z,23.98
2022-11-16T03:34:31.988Z,16.08
2022-11-16T03:37:36.724Z,18.02
2022-11-16T03:40:41.561Z,19.55
2022-11-16T03:43:45.592Z,16.38
2022-11-16T03:46:49.704Z,16.77
2022-11-16T03:49:52.990Z,21.88
2022-11-16T03:52:56.629Z,19.40
2022-11-16T03:55:59.878Z,24.73
2022-11-16T03:59:04.347Z,31.85
2022-11-16T04:02:07.773Z,24.75
2022-11-16T04:05:29.413Z,27.92
2022-11-16T04:08:51.445Z,32.10
2022-11-16T04:12:13.243Z,69.13
2022-11-16T04:15:36.267Z,66.82
2022-11-16T04:18:58.013Z,67.25
2022-11-16T04:22:24.515Z,68.63
2022-11-16T04:25:35.295Z,68.00
2022-11-16T04:28:38.903Z,59.60
2022-11-16T04:32:00.456Z,66.38
2022-11-16T04:35:22.588Z,60.95
2022-11-16T04:38:25.661Z,46.28
2022-11-16T04:41:49.550Z,9.80
2022-11-16T04:45:11.361Z,5.47
2022-11-16T04:48:22.587Z,7.20
2022-11-16T04:51:29.117Z,5.57
2022-11-16T04:54:32.375Z,12.07
2022-11-16T04:57:35.562Z,9.43
2022-11-16T05:00:41.629Z,8.90
2022-11-16T05:03:46.232Z,11.48
2022-11-16T05:06:49.705Z,19.42
2022-11-16T05:09:53.160Z,12.65
2022-11-16T05:12:56.661Z,13.50
2022-11-16T05:16:01.088Z,22.88
2022-11-16T05:19:23.179Z,27.17
2022-11-16T05:22:27.002Z,17.45
2022-11-16T05:25:36.137Z,25.63
2022-11-16T05:28:42.605Z,20.45
2022-11-16T05:31:48.091Z,21.20
2022-11-16T05:34:51.325Z,17.23
2022-11-16T05:37:54.461Z,14.55
2022-11-16T05:40:58.584Z,18.10
2022-11-16T05:44:01.666Z,12.15
2022-11-16T05:47:04.689Z,16.27
2022-11-16T05:50:10.139Z,18.75
2022-11-16T05:53:16.669Z,14.88
2022-11-16T05:56:20.123Z,10.25
2022-11-16T05:59:24.499Z,14.07
2022-11-16T06:02:32.941Z,10.43
2022-11-16T06:05:40.410Z,12.00
2022-11-16T06:08:47.024Z,16.40
2022-11-16T06:11:55.372Z,18.27
2022-11-16T06:14:58.422Z,9.55
2022-11-16T06:18:02.205Z,7.95
2022-11-16T06:21:06.409Z,12.50
2022-11-16T06:24:10.227Z,15.65
2022-11-16T06:27:13.509Z,13.15
2022-11-16T06:30:17.844Z,15.80
2022-11-16T06:33:21.354Z,20.85
2022-11-16T06:36:25.436Z,17.25
2022-11-16T06:39:29.044Z,12.45
2022-11-16T06:42:32.220Z,14.10
2022-11-16T06:45:36.969Z,19.48
2022-11-16T06:48:41.147Z,24.45
2022-11-16T06:51:48.230Z,14.90
2022-11-16T06:54:51.390Z,17.33
2022-11-16T06:57:54.574Z,16.75
2022-11-16T07:00:58.104Z,21.30
2022-11-16T07:04:01.592Z,20.65
2022-11-16T07:07:05.031Z,17.67
2022-11-16T07:10:11.119Z,21.00
2022-11-16T07:13:14.334Z,23.10
2022-11-16T07:16:17.763Z,25.23
2022-11-16T07:19:27.621Z,30.25
2022-11-16T07:22:30.998Z,44.92
2022-11-16T07:25:35.385Z,90.25
2022-11-16T07:28:44.898Z,88.50
2022-11-16T07:31:52.254Z,90.55
2022-11-16T07:35:15.317Z,98.88
2022-11-16T07:38:18.729Z,51.45
2022-11-16T07:41:22.115Z,33.15
2022-11-16T07:44:34.839Z,20.88
2022-11-16T07:47:42.613Z,13.73
2022-11-16T07:50:53.818Z,15.27
2022-11-16T07:53:57.827Z,14.55
2022-11-16T07:57:00.844Z,15.98
2022-11-16T08:00:06.422Z,13.52
2022-11-16T08:03:24.938Z,14.27
2022-11-16T08:06:33.333Z,10.35
2022-11-16T08:09:38.503Z,11.60
2022-11-16T08:12:41.946Z,8.98
2022-11-16T08:15:45.373Z,7.15
2022-11-16T08:18:49.229Z,8.77
2022-11-16T08:21:52.802Z,9.68
2022-11-16T08:24:56.517Z,12.68
2022-11-16T08:31:10.612Z,20.63
2022-11-16T08:34:14.550Z,20.33
2022-11-16T08:37:21.437Z,25.65
2022-11-16T08:40:24.712Z,16.80
2022-11-16T08:43:29.999Z,23.67
2022-11-16T08:46:33.107Z,58.63
2022-11-16T08:50:02.035Z,106.32
2022-11-16T08:53:06.623Z,51.35
2022-11-16T08:56:14.306Z,46.58
2022-11-16T08:59:18.122Z,43.30
2022-11-16T09:02:28.534Z,37.47
2022-11-16T09:05:31.928Z,28.50
2022-11-16T09:08:36.837Z,30.50
2022-11-16T09:11:40.227Z,31.02
2022-11-16T09:14:43.426Z,35.47
2022-11-16T09:17:46.644Z,40.30
2022-11-16T09:20:49.652Z,32.25
2022-11-16T09:23:53.710Z,36.38
2022-11-16T09:27:01.551Z,46.50
2022-11-16T09:30:06.112Z,50.90
2022-11-16T09:33:09.870Z,68.38
2022-11-16T09:36:12.984Z,120.78
2022-11-16T09:39:32.166Z,148.35
2022-11-16T09:43:03.670Z,91.68
2022-11-16T09:46:13.851Z,45.05
2022-11-16T09:49:25.013Z,38.53
2022-11-16T09:52:37.669Z,21.80
2022-11-16T09:55:51.638Z,25.77
2022-11-16T09:59:15.021Z,17.42
2022-11-16T10:02:37.739Z,17.77
2022-11-16T10:06:12.484Z,16.52
2022-11-16T10:09:15.609Z,19.35
2022-11-16T10:12:37.331Z,23.25
2022-11-16T10:15:46.691Z,33.35
2022-11-16T10:19:21.888Z,59.90
2022-11-16T10:22:46.228Z,52.70
2022-11-16T10:25:59.417Z,89.22
2022-11-16T10:29:21.521Z,105.13
2022-11-16T10:32:36.926Z,72.82
2022-11-16T10:35:47.533Z,30.58
2022-11-16T10:38:52.313Z,28.55
2022-11-16T10:41:58.776Z,18.08
2022-11-16T10:45:33.863Z,23.85
2022-11-16T10:48:49.373Z,21.13
2022-11-16T10:51:52.480Z,18.13
2022-11-16T10:54:56.588Z,17.05
2022-11-16T10:58:05.646Z,16.83
2022-11-16T11:01:12.711Z,16.00
2022-11-16T11:04:26.090Z,9.43
2022-11-16T11:07:36.088Z,9.50
2022-11-16T11:10:41.864Z,11.73
2022-11-16T11:13:44.850Z,14.15
2022-11-16T11:16:53.839Z,123.28
2022-11-16T11:20:05.033Z,181.45
2022-11-16T11:23:23.143Z,192.30
2022-11-16T11:26:36.258Z,234.77
2022-11-16T11:29:43.022Z,319.77
2022-11-16T11:32:46.491Z,260.67
2022-11-16T11:36:05.888Z,246.15
2022-11-16T11:39:29.098Z,214.95
2022-11-16T11:42:32.123Z,203.65
2022-11-16T11:45:54.837Z,118.82
2022-11-16T11:49:05.792Z,101.15
2022-11-16T11:52:35.146Z,90.18
2022-11-16T11:55:39.961Z,81.88
2022-11-16T11:58:44.340Z,76.30
2022-11-16T12:02:21.223Z,63.85
2022-11-16T12:05:49.173Z,64.50
2022-11-16T12:09:07.298Z,65.00
2022-11-16T12:12:42.846Z,82.75
2022-11-16T12:15:58.839Z,68.13
2022-11-16T12:19:39.408Z,61.25
2022-11-16T12:23:04.016Z,74.45
2022-11-16T12:26:45.578Z,37.78
2022-11-16T12:30:03.505Z,28.40
2022-11-16T12:33:31.716Z,26.02
2022-11-16T12:36:59.418Z,65.55
2022-11-16T12:40:24.249Z,58.22
2022-11-16T12:43:36.778Z,54.25
2022-11-16T12:46:45.515Z,56.40
2022-11-16T12:49:55.477Z,55.13
2022-11-16T12:53:36.030Z,58.30
2022-11-16T12:56:53.646Z,61.67
2022-11-16T13:00:08.302Z,60.83
2022-11-16T13:03:40.153Z,67.13
2022-11-16T13:06:59.010Z,68.25
2022-11-16T13:10:14.366Z,93.32
2022-11-16T13:13:41.898Z,108.43
2022-11-16T13:16:46.884Z,94.72
2022-11-16T13:20:30.475Z,76.15
2022-11-16T13:23:36.678Z,91.90
2022-11-16T13:26:50.465Z,101.18
2022-11-16T13:30:20.239Z,76.18
2022-11-16T13:34:15.326Z,69.53
2022-11-16T13:37:40.425Z,61.05
2022-11-16T13:40:43.910Z,63.00
2022-11-16T13:43:50.799Z,72.57
2022-11-16T13:47:06.812Z,61.60
2022-11-16T13:50:20.599Z,81.10
2022-11-16T13:54:43.265Z,83.13
2022-11-16T13:57:01.300Z,92.35
2022-11-16T14:00:05.702Z,96.88
2022-11-16T14:03:18.094Z,95.65
2022-11-16T14:06:21.237Z,111.05
2022-11-16T14:09:46.504Z,111.28
2022-11-16T14:12:56.596Z,137.00
2022-11-16T14:16:20.640Z,166.35
2022-11-16T14:19:42.135Z,167.13
2022-11-16T14:23:13.266Z,201.02
2022-11-16T14:26:48.071Z,138.80
2022-11-16T14:30:05.764Z,120.10
2022-11-16T14:33:15.837Z,104.72
2022-11-16T14:36:32.901Z,114.15
2022-11-16T14:39:43.608Z,129.10
2022-11-16T14:43:16.554Z,128.73
2022-11-16T14:46:28.825Z,100.15
2022-11-16T14:49:35.870Z,89.88
2022-11-16T14:52:48.232Z,64.60
2022-11-16T14:55:51.287Z,86.82
2022-11-16T14:59:01.074Z,66.50
2022-11-16T15:02:16.940Z,67.97
2022-11-16T15:05:23.003Z,59.95
2022-11-16T15:08:47.919Z,54.65
2022-11-16T15:12:10.469Z,57.03
2022-11-16T15:15:13.491Z,69.13
2022-11-16T15:18:22.695Z,75.50
2022-11-16T15:21:26.333Z,48.05
2022-11-16T15:24:32.343Z,53.22
2022-11-16T15:27:43.333Z,55.05
2022-11-16T15:30:50.916Z,60.28
2022-11-16T15:33:54.167Z,60.65
2022-11-16T15:36:57.236Z,50.95
2022-11-16T15:40:02.003Z,57.88
2022-11-16T15:46:09.652Z,41.70
2022-11-16T15:49:38.960Z,43.58
2022-11-16T15:52:44.393Z,36.78
2022-11-16T15:55:50.937Z,36.90
2022-11-16T15:58:55.844Z,41.10
2022-11-16T16:01:59.078Z,47.75
2022-11-16T16:05:02.067Z,46.75
2022-11-16T16:08:06.335Z,57.97
2022-11-16T16:11:21.412Z,28.50
2022-11-16T16:14:30.807Z,49.90
2022-11-16T16:17:33.836Z,45.53
2022-11-16T16:20:37.318Z,48.85
2022-11-16T16:23:49.262Z,38.72
2022-11-16T16:26:53.619Z,43.85
2022-11-16T16:29:58.479Z,40.60
2022-11-16T16:36:08.249Z,44.17
2022-11-16T16:39:11.409Z,34.20
2022-11-16T16:42:17.505Z,41.28
2022-11-16T16:45:31.657Z,42.55
2022-11-16T16:48:34.988Z,25.38
2022-11-16T16:51:38.110Z,27.77
2022-11-16T16:54:41.716Z,37.67
2022-11-16T16:57:45.043Z,31.13
2022-11-16T17:00:48.390Z,32.55
2022-11-16T17:03:51.621Z,27.17
2022-11-16T17:06:54.939Z,28.42
2022-11-16T17:09:58.092Z,42.60
2022-11-16T17:13:03.786Z,31.73
2022-11-16T17:16:08.180Z,32.30
2022-11-16T17:19:11.234Z,32.90
2022-11-16T17:22:15.534Z,40.63
2022-11-16T17:25:18.721Z,39.28
2022-11-16T17:28:23.218Z,39.90
2022-11-16T17:31:28.519Z,39.28
2022-11-16T17:34:32.340Z,16.15
2022-11-16T17:37:35.412Z,21.73
2022-11-16T17:40:38.388Z,29.25
2022-11-16T17:43:42.864Z,22.42
2022-11-16T17:46:46.189Z,25.77
2022-11-16T17:49:51.071Z,26.70
2022-11-16T17:52:54.172Z,18.90
2022-11-16T17:55:57.243Z,13.35
2022-11-16T17:59:00.446Z,16.17
2022-11-16T18:02:03.479Z,20.80
2022-11-16T18:05:06.781Z,19.20
2022-11-16T18:08:10.330Z,27.25
2022-11-16T18:11:17.574Z,21.85
2022-11-16T18:14:20.861Z,24.48
2022-11-16T18:17:24.153Z,26.13
2022-11-16T18:20:28.330Z,23.02
2022-11-16T18:23:32.081Z,16.42
2022-11-16T18:26:35.370Z,16.90
2022-11-16T18:29:38.435Z,18.50
2022-11-16T18:32:42.623Z,23.90
2022-11-16T18:35:45.854Z,19.00
2022-11-16T18:38:49.225Z,20.60
2022-11-16T18:41:55.277Z,27.23
2022-11-16T18:44:58.528Z,21.13
2022-11-16T18:48:01.652Z,19.52
2022-11-16T18:51:05.771Z,24.58
2022-11-16T18:54:09.335Z,24.60
2022-11-16T18:57:12.376Z,20.63
2022-11-16T19:00:16.449Z,25.67
2022-11-16T19:03:19.614Z,16.15
2022-11-16T19:06:23.770Z,14.65
2022-11-16T19:09:26.825Z,17.20
2022-11-16T19:12:30.145Z,19.13
2022-11-16T19:15:34.622Z,13.27
2022-11-16T19:18:38.879Z,17.60
2022-11-16T19:21:42.442Z,17.08
2022-11-16T19:24:45.526Z,10.70
2022-11-16T19:27:48.504Z,14.18
2022-11-16T19:30:51.566Z,11.90
2022-11-16T19:34:06.111Z,15.05
2022-11-16T19:37:09.261Z,10.98
2022-11-16T19:40:12.885Z,9.18
2022-11-16T19:43:15.955Z,14.50
2022-11-16T19:46:25.336Z,8.30
2022-11-16T19:49:28.291Z,9.32
2022-11-16T19:52:31.316Z,10.25
2022-11-16T19:55:34.787Z,12.77
2022-11-16T19:58:39.115Z,13.48
2022-11-16T20:01:42.174Z,11.77
2022-11-16T20:04:45.425Z,11.85
2022-11-16T20:07:49.874Z,12.77
2022-11-16T20:10:52.903Z,9.90
2022-11-16T20:13:57.683Z,13.70
2022-11-16T20:20:03.563Z,18.52
2022-11-16T20:23:06.637Z,15.35
2022-11-16T20:26:11.623Z,17.13
2022-11-16T20:29:16.321Z,24.10
2022-11-16T20:32:19.622Z,24.95
2022-11-16T20:35:22.764Z,13.98
2022-11-16T20:38:25.676Z,21.42
2022-11-16T20:41:31.265Z,17.35
2022-11-16T20:44:35.894Z,27.10
2022-11-16T20:47:38.898Z,20.58
2022-11-16T20:50:41.830Z,24.63
2022-11-16T20:53:46.768Z,22.77
2022-11-16T20:56:50.988Z,18.75
2022-11-16T20:59:54.008Z,14.85
2022-11-16T21:02:57.070Z,13.80
2022-11-16T21:06:00.612Z,11.15
2022-11-16T21:09:05.275Z,12.88
2022-11-16T21:12:27.487Z,9.90
2022-11-16T21:15:30.663Z,14.80
2022-11-16T21:18:33.998Z,12.48
2022-11-16T21:21:38.617Z,16.35
2022-11-16T21:24:41.677Z,17.20
2022-11-16T21:27:44.773Z,23.23
2022-11-16T21:31:02.704Z,21.52
2022-11-16T21:34:06.699Z,22.90
2022-11-16T21:37:09.852Z,30.98
2022-11-16T21:40:13.618Z,22.17
2022-11-16T21:43:17.053Z,21.77
2022-11-16T21:46:25.681Z,25.85
2022-11-16T21:49:28.670Z,25.48
2022-11-16T21:52:31.608Z,25.10
2022-11-16T21:55:35.040Z,20.90
2022-11-16T21:58:39.645Z,26.40
2022-11-16T22:02:00.970Z,25.38
2022-11-16T22:05:23.174Z,17.27
2022-11-16T22:08:26.238Z,12.18
2022-11-16T22:11:29.616Z,17.13
2022-11-16T22:14:32.574Z,17.02
2022-11-16T22:17:35.765Z,20.02
2022-11-16T22:20:38.848Z,18.27
2022-11-16T22:23:42.104Z,16.77
2022-11-16T22:26:45.339Z,23.80
2022-11-16T22:29:48.392Z,14.50
2022-11-16T22:32:51.396Z,20.33
2022-11-16T22:35:54.455Z,20.38
2022-11-16T22:38:57.890Z,17.13
2022-11-16T22:42:00.981Z,15.10
2022-11-16T22:45:04.503Z,17.05
2022-11-16T22:48:07.486Z,23.65
2022-11-16T22:51:20.442Z,19.38
2022-11-16T22:54:28.462Z,19.90
2022-11-16T22:57:31.949Z,27.60
2022-11-16T23:00:40.560Z,20.08
2022-11-16T23:03:45.245Z,54.88
2022-11-16T23:06:48.516Z,24.42
2022-11-16T23:09:51.520Z,11.98
2022-11-16T23:13:13.163Z,30.98
2022-11-16T23:16:16.132Z,29.50
2022-11-16T23:19:39.245Z,42.65
2022-11-16T23:23:00.682Z,21.02
2022-11-16T23:26:28.092Z,23.02
2022-11-16T23:29:31.279Z,22.50
2022-11-16T23:32:34.445Z,24.40
2022-11-16T23:35:37.633Z,16.88
2022-11-16T23:38:41.278Z,18.60
2022-11-16T23:42:02.765Z,23.00
2022-11-16T23:45:06.114Z,15.93
2022-11-16T23:48:10.556Z,11.13
2022-11-16T23:51:13.538Z,12.05
2022-11-16T23:54:16.532Z,10.05
2022-11-16T23:57:19.564Z,9.02
